Catuji, Brazil
Current Conditions -  °F | °C
As of 10:00 AM on Friday 28 Nov 2014 (Local Time) from SBMK Reporting Station
Few Clouds Few Clouds  
Wind Chill: 81°   Ceiling: Unl
Heat Index: 83°   Visibility: 6mi
Dew Point: 66°   Wind: 5mph
Humidity: 61%   Direction: 260°W
Pressure: 30.03"   Gusts: NA
Location:  17.3°S, 41.52°W
Report Text: SBMK 281200Z 26004KT 200V010 9999 FEW045TCU 27/19 Q1017
Loading
Personal Weather Stations






























Interactive Weather Map New forecast layout! Learn more

10-Day Weather Forecast

Advertisements
Track Severe Weather on mobile